Time;durP1;ratioP1;P1;durP2;ratioP2;P2;SDS_P1;SDS_P2;PMS_P1;PMS_P2;Temp;Humidity;BMP_temperature;BMP_pressure;BME280_temperature;BME280_humidity;BME280_pressure;Samples;Min_cycle;Max_cycle;Signal;HPM_P1;HPM_P2
2023/03/26 00:01:32;;;;;;;0.38;0.20;;;;;;;10.22;57.84;101891.63;4965022;28;20059;-85
2023/03/26 00:04:01;;;;;;;0.00;0.00;;;;;;;10.14;57.38;101885.16;4969035;28;20055;-85
2023/03/26 00:06:33;;;;;;;0.68;0.13;;;;;;;10.00;57.54;101881.03;4963393;28;20055;-85
2023/03/26 00:09:02;;;;;;;1.80;0.30;;;;;;;9.85;58.03;101896.66;4968276;28;20050;-84
2023/03/26 00:11:31;;;;;;;0.08;0.00;;;;;;;9.69;60.71;101894.09;4961952;28;20055;-86
2023/03/26 00:14:01;;;;;;;0.65;0.25;;;;;;;9.50;59.64;101880.22;4965970;28;20097;-85
2023/03/26 00:16:35;;;;;;;0.20;0.20;;;;;;;9.38;60.96;101892.50;4963725;28;20058;-83
2023/03/26 00:19:04;;;;;;;0.17;0.10;;;;;;;9.26;61.66;101897.91;4967149;28;20421;-84
2023/03/26 00:21:33;;;;;;;2.28;0.28;;;;;;;9.17;62.11;101897.44;4966724;28;20446;-83
2023/03/26 00:24:04;;;;;;;0.55;0.20;;;;;;;9.08;63.13;101889.19;4973188;28;20050;-84
2023/03/26 00:26:39;;;;;;;0.50;0.30;;;;;;;8.93;62.93;101877.25;4969893;28;20034;-84
2023/03/26 00:29:12;;;;;;;0.68;0.40;;;;;;;9.10;63.32;101885.88;4965385;28;20100;-85
2023/03/26 00:31:45;;;;;;;0.95;0.10;;;;;;;9.18;61.22;101883.69;4964196;28;20538;-82
2023/03/26 00:34:17;;;;;;;0.38;0.22;;;;;;;9.26;62.00;101890.16;4959681;28;20047;-83
2023/03/26 00:36:46;;;;;;;0.77;0.20;;;;;;;9.28;61.62;101878.22;4962504;28;20058;-82
2023/03/26 00:39:16;;;;;;;0.77;0.20;;;;;;;9.37;61.58;101880.41;4965953;28;20059;-85
2023/03/26 00:41:45;;;;;;;2.15;0.35;;;;;;;9.46;61.41;101887.72;4963501;28;20130;-84
2023/03/26 00:44:14;;;;;;;0.20;0.20;;;;;;;9.54;61.44;101878.69;4967399;28;20421;-83
2023/03/26 00:46:44;;;;;;;0.13;0.10;;;;;;;9.59;61.61;101879.81;4963829;28;20632;-84
2023/03/26 00:49:13;;;;;;;0.35;0.22;;;;;;;9.60;60.21;101868.69;4962514;28;20061;-84
2023/03/26 00:51:43;;;;;;;0.38;0.32;;;;;;;9.69;61.29;101879.50;4962252;28;20047;-83
2023/03/26 00:54:11;;;;;;;1.55;0.20;;;;;;;9.77;61.52;101877.28;4963819;28;20093;-84
2023/03/26 00:56:40;;;;;;;0.28;0.20;;;;;;;9.79;61.00;101875.66;4964372;28;20071;-84
2023/03/26 00:59:09;;;;;;;0.70;0.22;;;;;;;9.93;60.84;101884.13;4960635;28;20057;-82
2023/03/26 01:01:38;;;;;;;0.43;0.20;;;;;;;10.03;60.69;101881.16;4960977;28;20047;-84
2023/03/26 01:04:29;;;;;;;0.22;0.20;;;;;;;10.07;59.61;101876.22;4963694;28;20050;-82
2023/03/26 01:06:59;;;;;;;0.85;0.30;;;;;;;10.14;58.92;101881.69;4964417;28;20066;-83
2023/03/26 01:09:36;;;;;;;1.23;0.50;;;;;;;10.14;59.16;101895.50;4964166;28;20099;-84
2023/03/26 01:12:08;;;;;;;2.40;0.20;;;;;;;10.10;61.49;101898.78;4967023;28;20054;-85
2023/03/26 01:14:37;;;;;;;0.03;0.03;;;;;;;9.91;61.78;101880.56;4975218;28;20039;-87
2023/03/26 01:17:08;;;;;;;0.25;0.20;;;;;;;9.71;65.84;101888.22;4976154;28;20047;-88
2023/03/26 01:19:46;;;;;;;0.17;0.05;;;;;;;9.64;64.69;101883.50;4969141;28;20070;-88
2023/03/26 01:22:17;;;;;;;0.43;0.10;;;;;;;9.68;62.37;101892.31;4971039;28;20058;-87
2023/03/26 01:24:51;;;;;;;0.70;0.17;;;;;;;9.63;64.88;101886.91;4965914;28;20051;-89
2023/03/26 01:27:30;;;;;;;0.05;0.05;;;;;;;9.57;66.71;101887.47;4968758;28;20074;-88
2023/03/26 01:30:05;;;;;;;0.93;0.13;;;;;;;9.49;65.58;101891.38;4963840;28;20055;-89
2023/03/26 01:32:48;;;;;;;2.60;0.47;;;;;;;9.39;64.02;101890.03;4979859;28;20027;-90
2023/03/26 01:35:25;;;;;;;0.30;0.20;;;;;;;9.31;67.77;101885.25;4980684;28;20105;-90
2023/03/26 01:38:11;;;;;;;0.17;0.05;;;;;;;9.28;66.16;101888.56;4988506;28;20186;-90
2023/03/26 01:40:45;;;;;;;0.20;0.20;;;;;;;9.19;65.06;101882.91;4984603;28;20099;-90
2023/03/26 01:43:22;;;;;;;0.00;0.00;;;;;;;9.08;66.82;101881.44;4975932;28;20047;-87
2023/03/26 01:45:54;;;;;;;0.70;0.20;;;;;;;9.01;66.19;101885.41;4978403;28;20073;-89
2023/03/26 01:48:31;;;;;;;0.90;0.10;;;;;;;8.95;65.60;101892.78;4981805;28;20055;-88
2023/03/26 01:51:00;;;;;;;1.33;0.25;;;;;;;8.87;66.60;101889.81;4970465;28;20118;-91
2023/03/26 01:53:29;;;;;;;0.00;0.00;;;;;;;8.83;68.99;101893.03;4965147;28;20051;-79
2023/03/26 01:56:06;;;;;;;1.35;0.20;;;;;;;8.60;68.33;101907.22;4964627;28;20105;-82
2023/03/26 01:58:42;;;;;;;0.95;0.50;;;;;;;8.44;70.85;101926.13;4964937;28;20607;-82
2023/03/26 02:01:26;;;;;;;2.05;0.22;;;;;;;8.24;73.21;101937.81;4964947;28;20113;-79
2023/03/26 02:04:01;;;;;;;0.70;0.47;;;;;;;7.85;71.33;101944.13;4966345;28;20057;-80
2023/03/26 02:06:39;;;;;;;2.67;0.40;;;;;;;7.42;72.52;101938.94;4962160;28;20050;-81
2023/03/26 02:09:13;;;;;;;0.22;0.20;;;;;;;7.12;74.91;101943.97;4963883;28;20050;-80
2023/03/26 02:11:45;;;;;;;1.13;0.30;;;;;;;6.92;77.75;101935.91;4962610;28;20074;-80
2023/03/26 02:14:15;;;;;;;0.35;0.17;;;;;;;6.76;79.97;101933.16;4965397;28;20502;-81
2023/03/26 02:16:45;;;;;;;1.35;0.30;;;;;;;6.64;83.07;101927.22;4962654;28;20059;-81
2023/03/26 02:19:20;;;;;;;0.10;0.10;;;;;;;6.49;85.56;101922.88;4966481;28;20547;-81
2023/03/26 02:21:50;;;;;;;1.13;0.30;;;;;;;6.42;88.42;101928.41;4961986;28;20058;-82
2023/03/26 02:24:19;;;;;;;0.85;0.10;;;;;;;6.35;90.95;101922.78;4963290;28;20043;-82
2023/03/26 02:26:49;;;;;;;1.48;0.40;;;;;;;6.31;92.31;101921.69;4960712;28;20109;-83
2023/03/26 02:29:19;;;;;;;2.63;0.20;;;;;;;6.26;93.24;101935.94;4964496;28;20050;-83
2023/03/26 02:31:48;;;;;;;0.65;0.20;;;;;;;6.17;93.64;101930.19;4966374;28;20058;-83
2023/03/26 02:34:18;;;;;;;2.28;0.30;;;;;;;6.02;93.43;101923.22;4964097;28;20104;-83
2023/03/26 02:36:46;;;;;;;0.20;0.15;;;;;;;5.92;94.17;101927.63;4969059;28;20070;-83
2023/03/26 02:39:15;;;;;;;2.05;0.30;;;;;;;5.91;95.25;101933.53;4965969;28;20162;-83
2023/03/26 02:41:44;;;;;;;0.75;0.32;;;;;;;5.94;95.30;101941.47;4964093;28;20051;-82
2023/03/26 02:44:15;;;;;;;2.15;0.38;;;;;;;5.92;94.36;101940.47;4964139;28;20046;-84
2023/03/26 02:46:43;;;;;;;0.80;0.25;;;;;;;5.94;94.69;101949.16;4968499;28;20050;-82
2023/03/26 02:49:12;;;;;;;0.75;0.20;;;;;;;5.92;94.24;101943.91;4963376;28;20483;-83
2023/03/26 02:51:41;;;;;;;0.22;0.20;;;;;;;5.79;94.77;101931.03;4966678;28;20760;-84
2023/03/26 02:54:11;;;;;;;2.05;0.47;;;;;;;5.88;95.75;101949.63;4972571;28;20058;-82
2023/03/26 02:56:39;;;;;;;0.47;0.30;;;;;;;5.83;95.82;101935.59;4968257;28;20058;-82
2023/03/26 02:59:08;;;;;;;0.28;0.00;;;;;;;5.80;95.20;101951.69;4962715;28;20109;-83
2023/03/26 03:01:41;;;;;;;1.30;0.35;;;;;;;5.74;96.17;101945.25;4964315;28;20054;-83
2023/03/26 03:04:10;;;;;;;0.30;0.30;;;;;;;5.76;97.90;101959.09;4969710;28;20113;-84
2023/03/26 03:06:39;;;;;;;0.10;0.10;;;;;;;5.79;98.72;101954.16;4968117;28;20057;-82
2023/03/26 03:09:12;;;;;;;0.40;0.25;;;;;;;5.78;98.08;101955.81;4969948;28;20046;-82
2023/03/26 03:11:41;;;;;;;0.60;0.10;;;;;;;5.66;98.54;101950.75;4975700;28;20045;-83
2023/03/26 03:14:10;;;;;;;0.55;0.10;;;;;;;5.61;99.89;101954.69;4967106;28;20110;-82
2023/03/26 03:16:40;;;;;;;0.50;0.25;;;;;;;5.54;99.44;101947.31;4965355;28;20121;-82
2023/03/26 03:19:09;;;;;;;0.05;0.03;;;;;;;5.47;99.63;101945.13;4964296;28;20106;-83
2023/03/26 03:21:38;;;;;;;0.30;0.20;;;;;;;5.46;100.00;101956.19;4969956;28;20047;-82
2023/03/26 03:24:07;;;;;;;4.10;0.30;;;;;;;5.39;100.00;101952.31;4964761;28;20055;-82
2023/03/26 03:26:36;;;;;;;0.55;0.38;;;;;;;5.39;100.00;101953.97;4969321;28;20055;-83
2023/03/26 03:29:05;;;;;;;0.32;0.10;;;;;;;5.33;100.00;101945.84;4963727;28;20645;-83
2023/03/26 03:31:34;;;;;;;0.50;0.20;;;;;;;5.46;100.00;101969.03;4969385;28;20504;-83
2023/03/26 03:34:04;;;;;;;0.20;0.10;;;;;;;5.50;100.00;101971.03;4963451;28;20051;-83
2023/03/26 03:36:37;;;;;;;2.35;0.20;;;;;;;5.54;100.00;101966.97;4971295;28;20109;-81
2023/03/26 03:39:06;;;;;;;0.55;0.28;;;;;;;5.51;100.00;101965.09;4968998;28;20523;-82
2023/03/26 03:41:35;;;;;;;0.20;0.15;;;;;;;5.52;100.00;101963.41;4968290;28;20047;-81
2023/03/26 03:44:03;;;;;;;2.75;0.55;;;;;;;5.51;100.00;101970.22;4963477;28;20055;-81
2023/03/26 03:46:32;;;;;;;0.73;0.63;;;;;;;5.48;100.00;101974.28;4967363;28;20114;-81
2023/03/26 03:49:01;;;;;;;0.45;0.20;;;;;;;5.48;100.00;101972.59;4964981;28;20223;-81
2023/03/26 03:51:31;;;;;;;0.88;0.43;;;;;;;5.51;100.00;101972.78;4965415;28;20493;-81
2023/03/26 03:53:59;;;;;;;0.63;0.40;;;;;;;5.49;100.00;101969.22;4966018;28;20055;-82
2023/03/26 03:56:28;;;;;;;1.52;0.40;;;;;;;5.54;100.00;101973.00;4968589;28;20047;-82
2023/03/26 03:58:58;;;;;;;3.42;0.50;;;;;;;5.54;100.00;101983.25;4969026;28;20078;-81
2023/03/26 04:01:29;;;;;;;1.35;0.22;;;;;;;5.56;100.00;101985.94;4967250;28;20113;-81
2023/03/26 04:03:58;;;;;;;2.65;0.50;;;;;;;5.55;100.00;101985.06;4965853;28;20065;-82
2023/03/26 04:06:29;;;;;;;3.30;0.40;;;;;;;5.56;100.00;101983.38;4966765;28;20233;-82
2023/03/26 04:08:59;;;;;;;2.88;0.50;;;;;;;5.53;100.00;101989.19;4965844;28;20146;-82
2023/03/26 04:11:28;;;;;;;0.90;0.50;;;;;;;5.53;100.00;101991.78;4964848;28;20039;-82
2023/03/26 04:13:57;;;;;;;0.82;0.50;;;;;;;5.51;100.00;101988.19;4965363;28;20055;-81
2023/03/26 04:16:25;;;;;;;1.65;0.70;;;;;;;5.49;100.00;101984.63;4962114;28;20433;-81
2023/03/26 04:18:56;;;;;;;1.13;0.68;;;;;;;5.44;100.00;101986.00;4965802;28;20062;-82
2023/03/26 04:21:25;;;;;;;1.17;0.70;;;;;;;5.43;100.00;101991.94;4966039;28;20046;-82
2023/03/26 04:23:54;;;;;;;1.23;0.65;;;;;;;5.44;100.00;101996.25;4962999;28;20051;-82
2023/03/26 04:26:25;;;;;;;0.55;0.50;;;;;;;5.38;100.00;101996.72;4967534;28;20054;-82
2023/03/26 04:28:56;;;;;;;2.13;0.82;;;;;;;5.35;100.00;102005.88;4966114;28;20061;-82
2023/03/26 04:31:27;;;;;;;1.17;0.50;;;;;;;5.37;100.00;102009.44;4967964;28;20053;-82
2023/03/26 04:33:58;;;;;;;0.60;0.40;;;;;;;5.40;100.00;102000.28;4968651;28;20047;-82
2023/03/26 04:36:30;;;;;;;1.17;0.55;;;;;;;5.38;100.00;102006.09;4967699;28;20061;-82
2023/03/26 04:39:03;;;;;;;1.23;0.82;;;;;;;5.23;100.00;101999.09;4965232;28;20130;-82
2023/03/26 04:41:34;;;;;;;1.85;0.60;;;;;;;5.16;100.00;102003.69;4967609;28;20055;-82
2023/03/26 04:44:03;;;;;;;2.38;0.40;;;;;;;5.13;100.00;102011.16;4962880;28;20145;-82
2023/03/26 04:46:33;;;;;;;0.60;0.50;;;;;;;5.06;100.00;101999.56;4966678;28;20054;-81
2023/03/26 04:49:02;;;;;;;1.05;0.65;;;;;;;5.07;100.00;102013.31;4961111;28;20058;-81
2023/03/26 04:51:40;;;;;;;1.25;0.73;;;;;;;5.07;100.00;102011.63;4965654;28;20140;-82
2023/03/26 04:54:11;;;;;;;1.20;0.93;;;;;;;5.05;100.00;102015.75;4966292;28;20053;-82
2023/03/26 04:56:49;;;;;;;0.73;0.40;;;;;;;5.03;100.00;102022.44;4965693;28;20046;-82
2023/03/26 04:59:25;;;;;;;0.52;0.35;;;;;;;5.03;100.00;102025.00;4966209;28;20047;-82
2023/03/26 05:01:55;;;;;;;3.20;1.00;;;;;;;5.02;100.00;102026.69;4966564;28;20074;-82
2023/03/26 05:04:28;;;;;;;1.98;0.45;;;;;;;5.01;100.00;102035.13;4965350;28;20047;-82
2023/03/26 05:06:58;;;;;;;2.10;0.80;;;;;;;5.03;100.00;102037.81;4965147;28;20054;-82
2023/03/26 05:09:27;;;;;;;1.48;0.57;;;;;;;5.07;100.00;102044.09;4966307;28;20188;-82
2023/03/26 05:11:58;;;;;;;0.95;0.40;;;;;;;5.13;100.00;102048.00;4965506;28;20098;-81
2023/03/26 05:14:26;;;;;;;1.00;0.60;;;;;;;5.15;100.00;102038.69;4964703;28;20046;-82
2023/03/26 05:16:55;;;;;;;1.13;0.43;;;;;;;5.24;100.00;102051.31;4967555;28;20050;-82
2023/03/26 05:19:24;;;;;;;0.98;0.45;;;;;;;5.28;100.00;102060.13;4962721;28;20529;-82
2023/03/26 05:21:53;;;;;;;1.08;0.50;;;;;;;5.30;100.00;102053.44;4964455;28;20551;-82
2023/03/26 05:24:23;;;;;;;2.53;0.80;;;;;;;5.31;100.00;102047.50;4968343;28;20595;-82
2023/03/26 05:26:52;;;;;;;1.98;0.45;;;;;;;5.32;100.00;102054.44;4964222;28;20054;-81
2023/03/26 05:29:25;;;;;;;0.47;0.40;;;;;;;5.34;100.00;102052.88;4965627;28;20074;-82
2023/03/26 05:31:54;;;;;;;3.70;0.60;;;;;;;5.34;100.00;102060.56;4961685;28;20077;-82
2023/03/26 05:34:25;;;;;;;1.58;1.00;;;;;;;5.31;100.00;102070.59;4963106;28;20097;-81
2023/03/26 05:36:54;;;;;;;0.70;0.60;;;;;;;5.31;100.00;102047.50;4963719;28;20101;-81
2023/03/26 05:39:25;;;;;;;0.38;0.30;;;;;;;5.36;100.00;102053.84;4959019;28;20067;-81
2023/03/26 05:41:54;;;;;;;0.68;0.40;;;;;;;5.37;100.00;102055.66;4943458;28;20157;-81
2023/03/26 05:44:24;;;;;;;0.98;0.30;;;;;;;5.37;100.00;102048.84;4944052;28;20046;-81
2023/03/26 05:46:54;;;;;;;3.00;0.43;;;;;;;5.37;100.00;102047.94;4950076;28;20082;-81
2023/03/26 05:49:22;;;;;;;1.95;0.47;;;;;;;5.38;100.00;102052.28;4945574;28;20054;-83
2023/03/26 05:51:52;;;;;;;2.75;0.63;;;;;;;5.38;100.00;102047.16;4949023;28;20056;-81
2023/03/26 05:54:20;;;;;;;0.68;0.40;;;;;;;5.31;100.00;102039.81;4947223;28;20050;-82
2023/03/26 05:56:49;;;;;;;1.65;0.65;;;;;;;5.36;100.00;102053.84;4946876;29;20057;-81
2023/03/26 05:59:18;;;;;;;1.05;0.68;;;;;;;5.35;100.00;102059.78;4940372;28;20051;-80
2023/03/26 06:01:50;;;;;;;1.10;0.70;;;;;;;5.30;100.00;102045.72;4944990;28;20142;-80
2023/03/26 06:04:19;;;;;;;1.13;0.77;;;;;;;5.28;100.00;102043.06;4945273;28;20141;-81
2023/03/26 06:06:48;;;;;;;2.17;0.60;;;;;;;5.28;100.00;102048.19;4946958;28;20047;-80
2023/03/26 06:09:17;;;;;;;4.32;0.57;;;;;;;5.25;100.00;102055.66;4949055;28;20134;-81
2023/03/26 06:11:46;;;;;;;1.02;0.30;;;;;;;5.15;100.00;102043.81;4946561;28;20057;-81
2023/03/26 06:14:15;;;;;;;2.28;0.55;;;;;;;5.11;100.00;102041.84;4945776;28;20090;-80
2023/03/26 06:16:43;;;;;;;1.52;0.50;;;;;;;5.14;100.00;102056.56;4942917;28;20107;-84
2023/03/26 06:19:14;;;;;;;0.52;0.40;;;;;;;5.10;100.00;102055.44;4952485;28;20122;-82
2023/03/26 06:21:43;;;;;;;0.88;0.45;;;;;;;5.09;100.00;102053.66;4947463;28;20047;-81
2023/03/26 06:24:12;;;;;;;1.98;0.40;;;;;;;5.02;100.00;102043.75;4950128;28;20047;-80
2023/03/26 06:26:40;;;;;;;0.95;0.40;;;;;;;5.00;100.00;102055.56;4949666;28;20079;-81
2023/03/26 06:29:09;;;;;;;0.95;0.50;;;;;;;4.96;100.00;102048.44;4954863;28;20069;-82
2023/03/26 06:31:38;;;;;;;4.30;0.50;;;;;;;4.94;100.00;102049.97;4946831;28;20058;-81
2023/03/26 06:34:07;;;;;;;1.23;0.50;;;;;;;4.91;100.00;102057.47;4951087;28;20063;-81
2023/03/26 06:36:37;;;;;;;1.13;0.40;;;;;;;4.89;100.00;102051.31;4951828;28;20043;-81
2023/03/26 06:39:06;;;;;;;1.17;0.63;;;;;;;4.88;100.00;102054.66;4955030;28;20058;-81
2023/03/26 06:41:35;;;;;;;0.70;0.43;;;;;;;4.85;100.00;102059.56;4969588;28;20382;-80
2023/03/26 06:44:03;;;;;;;3.55;0.75;;;;;;;4.80;100.00;102062.69;4966489;28;20145;-81
2023/03/26 06:46:32;;;;;;;0.63;0.38;;;;;;;4.75;100.00;102063.13;4965841;28;20062;-80
2023/03/26 06:49:01;;;;;;;0.50;0.50;;;;;;;4.57;100.00;102047.28;4963565;28;20065;-81
2023/03/26 06:51:30;;;;;;;1.23;0.40;;;;;;;4.66;100.00;102060.78;4966701;28;20994;-81
2023/03/26 06:54:00;;;;;;;0.55;0.28;;;;;;;4.64;100.00;102062.34;4971167;28;20046;-80
2023/03/26 06:56:29;;;;;;;1.50;0.73;;;;;;;4.59;100.00;102067.13;4965980;28;20043;-81
2023/03/26 06:58:58;;;;;;;1.40;0.52;;;;;;;4.55;100.00;102069.34;4967022;28;20066;-81
2023/03/26 07:01:27;;;;;;;1.90;0.70;;;;;;;4.53;100.00;102081.16;4964138;28;20059;-80
2023/03/26 07:03:57;;;;;;;0.65;0.38;;;;;;;4.46;100.00;102072.09;4968397;28;20051;-80
2023/03/26 07:06:26;;;;;;;0.93;0.32;;;;;;;4.45;100.00;102072.00;4967173;28;20688;-81
2023/03/26 07:08:56;;;;;;;1.40;0.55;;;;;;;4.44;100.00;102077.91;4964412;28;20051;-81
2023/03/26 07:11:26;;;;;;;0.95;0.43;;;;;;;4.33;100.00;102079.63;4964070;28;20047;-82
2023/03/26 07:13:58;;;;;;;0.43;0.43;;;;;;;4.24;100.00;102082.41;4970776;28;20055;-82
2023/03/26 07:16:26;;;;;;;3.10;0.70;;;;;;;4.17;100.00;102078.50;4965320;28;20046;-82
2023/03/26 07:18:55;;;;;;;1.25;0.68;;;;;;;4.15;100.00;102074.03;4965476;28;20054;-81
2023/03/26 07:21:25;;;;;;;1.70;0.70;;;;;;;4.13;100.00;102075.56;4966038;28;20057;-80
2023/03/26 07:23:54;;;;;;;0.70;0.50;;;;;;;4.10;100.00;102071.13;4960444;28;20069;-80
2023/03/26 07:26:36;;;;;;;1.25;1.15;;;;;;;4.13;100.00;102076.47;4959141;28;20050;-82
2023/03/26 07:29:14;;;;;;;0.93;0.43;;;;;;;4.10;100.00;102072.75;4964668;28;20054;-80
2023/03/26 07:31:52;;;;;;;0.90;0.52;;;;;;;4.08;100.00;102070.09;4968163;28;20232;-80
2023/03/26 07:34:37;;;;;;;2.05;0.55;;;;;;;4.10;100.00;102075.31;4968929;28;20471;-80
2023/03/26 07:37:14;;;;;;;1.10;0.50;;;;;;;4.11;100.00;102077.13;4967831;28;20059;-80
2023/03/26 07:39:51;;;;;;;0.50;0.50;;;;;;;4.12;100.00;102073.78;4957410;28;20150;-80
2023/03/26 07:42:35;;;;;;;0.63;0.50;;;;;;;4.12;100.00;102084.03;4945908;28;20047;-80
2023/03/26 07:45:18;;;;;;;0.75;0.47;;;;;;;4.16;100.00;102080.94;4948004;29;20865;-81
2023/03/26 07:47:48;;;;;;;0.60;0.32;;;;;;;4.14;100.00;102079.91;4943350;28;20059;-80
2023/03/26 07:50:19;;;;;;;2.17;0.60;;;;;;;4.14;100.00;102080.78;4943047;28;20058;-80
2023/03/26 07:52:48;;;;;;;1.88;0.55;;;;;;;4.11;100.00;102074.56;4943548;29;20644;-80
2023/03/26 07:55:18;;;;;;;2.78;0.70;;;;;;;4.13;100.00;102083.25;4942408;29;20052;-80
2023/03/26 07:58:01;;;;;;;1.70;0.70;;;;;;;4.06;100.00;102078.44;4943927;29;20054;-80
2023/03/26 08:00:35;;;;;;;2.60;0.47;;;;;;;4.02;100.00;102072.19;4943933;29;20556;-80
2023/03/26 08:03:23;;;;;;;0.70;0.50;;;;;;;3.97;100.00;102076.94;4941835;28;20051;-80
2023/03/26 08:06:10;;;;;;;0.50;0.40;;;;;;;3.99;100.00;102087.31;4948097;29;20231;-80
2023/03/26 08:08:46;;;;;;;1.70;0.70;;;;;;;3.98;100.00;102086.41;4945027;28;20062;-80
2023/03/26 08:11:36;;;;;;;1.02;0.70;;;;;;;3.98;100.00;102086.41;4948107;28;20106;-80
2023/03/26 08:14:28;;;;;;;0.90;0.55;;;;;;;3.96;100.00;102089.63;4943831;29;20517;-79
2023/03/26 08:17:01;;;;;;;3.83;0.50;;;;;;;3.88;100.00;102088.16;4946814;28;20651;-80
2023/03/26 08:19:49;;;;;;;1.98;0.70;;;;;;;3.78;100.00;102081.44;4944768;28;20130;-79
2023/03/26 08:22:25;;;;;;;4.00;0.60;;;;;;;3.66;100.00;102076.22;4945594;28;20708;-79
2023/03/26 08:25:10;;;;;;;0.60;0.35;;;;;;;3.59;100.00;102075.63;4946395;29;20046;-79
2023/03/26 08:27:40;;;;;;;0.95;0.50;;;;;;;3.58;100.00;102078.97;4942637;29;20051;-79
2023/03/26 08:30:18;;;;;;;0.73;0.55;;;;;;;3.56;100.00;102073.72;4944797;29;20054;-80
2023/03/26 08:32:53;;;;;;;0.50;0.45;;;;;;;3.60;100.00;102082.53;4946558;29;20047;-80
2023/03/26 08:35:22;;;;;;;2.15;0.50;;;;;;;3.61;100.00;102085.22;4948078;28;20070;-80
2023/03/26 08:37:52;;;;;;;5.18;0.50;;;;;;;3.61;100.00;102081.75;4945580;28;20047;-80
2023/03/26 08:40:42;;;;;;;4.10;0.85;;;;;;;3.60;100.00;102090.19;4945472;28;20119;-80
2023/03/26 08:43:36;;;;;;;1.33;0.70;;;;;;;3.59;100.00;102091.88;4941650;29;20047;-80
2023/03/26 08:46:37;;;;;;;1.58;0.70;;;;;;;3.56;100.00;102087.41;4945155;29;20062;-81
2023/03/26 08:49:43;;;;;;;2.50;0.40;;;;;;;3.51;100.00;102080.16;4937830;29;20081;-80
2023/03/26 08:52:49;;;;;;;3.72;0.45;;;;;;;3.49;100.00;102081.69;4946048;29;20051;-80
2023/03/26 08:55:40;;;;;;;1.20;0.70;;;;;;;3.41;100.00;102083.63;4946306;29;20058;-81
2023/03/26 08:58:45;;;;;;;2.55;0.80;;;;;;;3.40;100.00;102084.41;4943756;29;20047;-81
2023/03/26 09:01:38;;;;;;;1.10;0.80;;;;;;;3.39;100.00;102079.16;4941020;29;20082;-80
2023/03/26 09:04:29;;;;;;;3.58;0.60;;;;;;;3.40;100.00;102075.84;4946152;29;20061;-80
2023/03/26 09:07:26;;;;;;;2.42;0.80;;;;;;;3.38;100.00;102088.50;4943209;29;20055;-80
2023/03/26 09:10:42;;;;;;;1.40;0.80;;;;;;;3.29;100.00;102077.53;4891015;29;20100;-80
2023/03/26 09:13:42;;;;;;;1.50;0.52;;;;;;;3.36;100.00;102084.94;4920689;29;20137;-81
2023/03/26 09:16:34;;;;;;;1.33;0.70;;;;;;;3.32;100.00;102081.25;4948845;29;20659;-80
2023/03/26 09:19:47;;;;;;;1.70;0.57;;;;;;;3.28;100.00;102081.78;4943476;29;20670;-81
2023/03/26 09:23:04;;;;;;;1.33;0.30;;;;;;;3.25;100.00;102080.63;4940006;29;20055;-81
2023/03/26 09:25:58;;;;;;;1.17;0.60;;;;;;;3.27;100.00;102081.63;4945843;29;20055;-80
2023/03/26 09:28:59;;;;;;;1.10;0.70;;;;;;;3.26;100.00;102085.00;4945769;29;20043;-81
2023/03/26 09:31:56;;;;;;;0.80;0.40;;;;;;;3.27;100.00;102084.19;4944072;29;20146;-80
2023/03/26 09:34:33;;;;;;;0.82;0.55;;;;;;;3.18;100.00;102063.00;4948369;29;20077;-81
2023/03/26 09:37:26;;;;;;;2.25;0.70;;;;;;;3.25;100.00;102078.06;4945538;29;20055;-80
2023/03/26 09:40:16;;;;;;;2.30;1.13;;;;;;;3.19;100.00;102075.94;4949572;28;20058;-79
2023/03/26 09:42:51;;;;;;;7.38;2.60;;;;;;;3.20;100.00;102079.38;4963536;28;20051;-80
2023/03/26 09:45:40;;;;;;;5.30;1.73;;;;;;;3.20;100.00;102079.38;4965563;28;20078;-81
2023/03/26 09:48:33;;;;;;;4.07;1.33;;;;;;;3.13;100.00;102076.31;4961540;28;20046;-81
2023/03/26 09:51:11;;;;;;;;;;;;;;;3.06;100.00;102073.16;4966160;28;20050;-80
2023/03/26 09:53:57;;;;;;;1.58;0.98;;;;;;;3.01;100.00;102087.22;4966008;28;19921;-81
2023/03/26 09:56:37;;;;;;;5.10;1.10;;;;;;;2.98;100.00;102077.66;4962208;28;20074;-80
2023/03/26 09:59:30;;;;;;;2.55;1.20;;;;;;;2.98;100.00;102074.16;4962354;28;20064;-81
2023/03/26 10:02:03;;;;;;;;;;;;;;;3.03;100.00;102083.13;4962235;28;20058;-80
2023/03/26 10:04:42;;;;;;;;;;;;;;;3.03;100.00;102089.13;4966512;28;19961;-80
2023/03/26 10:07:28;;;;;;;4.95;1.55;;;;;;;3.05;100.00;102092.72;4959979;28;19925;-80
2023/03/26 10:10:04;;;;;;;2.15;1.13;;;;;;;3.04;100.00;102083.25;4964879;28;20154;-81
2023/03/26 10:12:40;;;;;;;2.72;1.30;;;;;;;3.04;100.00;102087.47;4963169;28;20675;-80
2023/03/26 10:15:25;;;;;;;6.75;1.42;;;;;;;3.01;100.00;102087.22;4963948;28;20051;-81
2023/03/26 10:18:09;;;;;;;2.60;1.15;;;;;;;2.97;100.00;102091.19;4967666;28;20054;-81
2023/03/26 10:20:53;;;;;;;2.30;1.35;;;;;;;2.99;100.00;102096.44;4959450;28;20090;-81
2023/03/26 10:23:42;;;;;;;7.40;1.63;;;;;;;2.98;100.00;102092.06;4963685;28;20047;-80
2023/03/26 10:26:27;;;;;;;5.40;1.85;;;;;;;2.88;100.00;102080.22;4967381;28;20066;-82
2023/03/26 10:29:17;;;;;;;3.13;1.50;;;;;;;2.92;100.00;102092.47;4963162;28;20047;-82
2023/03/26 10:31:48;;;;;;;5.85;1.92;;;;;;;2.89;100.00;102095.69;4962193;28;20042;-81
2023/03/26 10:34:47;;;;;;;6.28;2.33;;;;;;;2.90;100.00;102092.34;4965384;28;20461;-84
2023/03/26 10:37:19;;;;;;;5.53;1.98;;;;;;;2.85;100.00;102090.19;4969444;28;20083;-82
2023/03/26 10:40:07;;;;;;;6.90;1.60;;;;;;;2.78;100.00;102086.25;4961779;28;20135;-81
2023/03/26 10:42:58;;;;;;;5.80;1.90;;;;;;;2.69;100.00;102083.81;4946782;28;20109;-82
2023/03/26 10:45:38;;;;;;;7.90;1.80;;;;;;;2.70;100.00;102094.94;4941318;28;20048;-82
2023/03/26 10:48:24;;;;;;;3.78;1.25;;;;;;;2.72;100.00;102099.38;4948280;28;20047;-82
2023/03/26 10:51:37;;;;;;;5.18;1.70;;;;;;;2.74;100.00;102099.53;4950917;28;20046;-81
2023/03/26 10:54:15;;;;;;;3.13;1.70;;;;;;;2.75;100.00;102097.84;4864729;29;20068;-82
2023/03/26 10:56:48;;;;;;;4.55;1.88;;;;;;;2.78;100.00;102093.03;4942689;28;20519;-82
2023/03/26 10:59:17;;;;;;;7.05;2.55;;;;;;;2.78;100.00;102093.03;4949483;28;20051;-81
2023/03/26 11:01:55;;;;;;;8.23;2.45;;;;;;;2.80;100.00;102096.59;4942571;28;20082;-82
2023/03/26 11:04:35;;;;;;;6.53;2.03;;;;;;;2.82;100.00;102100.16;4948586;28;20055;-83
2023/03/26 11:07:13;;;;;;;2.85;1.45;;;;;;;2.85;100.00;102100.41;4955653;28;20082;-81
2023/03/26 11:09:49;;;;;;;8.68;1.75;;;;;;;2.87;100.00;102101.44;4948718;28;20109;-82
2023/03/26 11:12:26;;;;;;;5.28;1.73;;;;;;;2.89;100.00;102085.47;4952196;28;20051;-82
2023/03/26 11:15:05;;;;;;;1.95;1.02;;;;;;;2.92;100.00;102097.59;4948661;28;20062;-82
2023/03/26 11:17:47;;;;;;;3.35;1.70;;;;;;;2.90;100.00;102096.56;4947743;28;20055;-81
2023/03/26 11:20:21;;;;;;;1.27;1.02;;;;;;;2.83;100.00;102089.16;4953523;28;20055;-81
2023/03/26 11:23:05;;;;;;;3.80;1.50;;;;;;;2.77;100.00;102089.53;4948497;28;20064;-82
2023/03/26 11:25:49;;;;;;;1.65;1.00;;;;;;;2.81;100.00;102096.69;4949797;28;20055;-82
2023/03/26 11:28:32;;;;;;;2.20;1.48;;;;;;;2.75;100.00;102080.88;4939339;29;20055;-82
2023/03/26 11:31:09;;;;;;;1.15;0.68;;;;;;;2.86;100.00;102099.63;4953871;28;20042;-82
2023/03/26 11:33:45;;;;;;;4.93;1.42;;;;;;;2.85;100.00;102101.31;4949453;28;20130;-82
2023/03/26 11:36:17;;;;;;;2.97;1.20;;;;;;;2.87;100.00;102093.78;4951647;28;20059;-82
2023/03/26 11:38:48;;;;;;;3.30;1.30;;;;;;;2.90;100.00;102101.69;4953138;28;20054;-82
2023/03/26 11:41:21;;;;;;;5.38;1.48;;;;;;;2.92;100.00;102095.03;4963920;28;20054;-82
2023/03/26 11:43:53;;;;;;;2.58;0.75;;;;;;;2.85;100.00;102087.63;4966929;28;20054;-82
2023/03/26 11:46:24;;;;;;;1.90;1.00;;;;;;;2.93;100.00;102096.81;4966716;28;20475;-81
2023/03/26 11:48:59;;;;;;;1.55;0.90;;;;;;;2.93;100.00;102101.91;4964649;28;20050;-81
2023/03/26 11:51:32;;;;;;;2.33;0.95;;;;;;;2.94;100.00;102094.38;4965892;28;20075;-82
2023/03/26 11:54:01;;;;;;;2.70;0.98;;;;;;;2.98;100.00;102103.22;4967856;28;20112;-82
2023/03/26 11:56:34;;;;;;;4.18;1.13;;;;;;;3.01;100.00;102102.56;4965792;28;20054;-82
2023/03/26 11:59:06;;;;;;;2.10;0.80;;;;;;;2.97;100.00;102096.28;4963937;28;20693;-82
2023/03/26 12:01:50;;;;;;;4.47;1.23;;;;;;;2.99;100.00;102099.88;4963914;28;20089;-81
2023/03/26 12:04:28;;;;;;;7.78;1.00;;;;;;;2.99;100.00;102102.44;4967501;28;20055;-82
2023/03/26 12:06:58;;;;;;;3.38;0.85;;;;;;;3.01;100.00;102108.56;4962995;28;20050;-81